createdAt,value
2022-08-24T00:00:11.082Z,17.27
2022-08-24T00:05:35.870Z,17.22
2022-08-24T00:11:03.631Z,17.24
2022-08-24T00:16:29.623Z,17.25
2022-08-24T00:21:52.736Z,17.07
2022-08-24T00:27:16.872Z,16.94
2022-08-24T00:32:40.675Z,17.02
2022-08-24T00:38:04.888Z,17.00
2022-08-24T00:43:31.137Z,16.97
2022-08-24T00:48:58.825Z,16.98
2022-08-24T00:54:25.276Z,16.93
2022-08-24T00:59:55.746Z,16.86
2022-08-24T01:05:22.172Z,16.92
2022-08-24T01:10:51.718Z,16.77
2022-08-24T01:21:58.063Z,16.50
2022-08-24T01:27:27.990Z,16.57
2022-08-24T01:32:49.603Z,16.63
2022-08-24T01:38:16.190Z,16.79
2022-08-24T01:43:38.632Z,16.73
2022-08-24T01:49:03.024Z,16.84
2022-08-24T01:54:27.754Z,16.93
2022-08-24T01:59:50.726Z,17.03
2022-08-24T02:05:13.821Z,17.08
2022-08-24T02:10:36.444Z,17.07
2022-08-24T02:16:01.455Z,17.06
2022-08-24T02:21:25.005Z,17.01
2022-08-24T02:26:48.077Z,17.03
2022-08-24T02:32:12.941Z,17.02
2022-08-24T02:37:35.833Z,17.01
2022-08-24T02:43:00.266Z,17.04
2022-08-24T02:48:24.156Z,16.97
2022-08-24T02:53:46.923Z,16.95
2022-08-24T02:59:12.820Z,16.90
2022-08-24T03:04:37.678Z,16.81
2022-08-24T03:10:00.314Z,16.75
2022-08-24T03:15:25.420Z,16.76
2022-08-24T03:20:48.949Z,16.82
2022-08-24T03:26:11.438Z,16.82
2022-08-24T03:31:40.377Z,16.80
2022-08-24T03:37:03.031Z,16.95
2022-08-24T03:42:25.474Z,17.01
2022-08-24T03:47:48.241Z,17.06
2022-08-24T03:53:11.723Z,17.06
2022-08-24T03:58:34.074Z,17.09
2022-08-24T04:03:59.479Z,17.19
2022-08-24T04:09:24.133Z,17.21
2022-08-24T04:14:47.024Z,17.23
2022-08-24T04:20:09.440Z,17.33
2022-08-24T04:25:32.653Z,17.37
2022-08-24T04:30:57.329Z,17.39
2022-08-24T04:36:21.398Z,17.39
2022-08-24T04:41:44.673Z,17.38
2022-08-24T04:47:09.375Z,17.53
2022-08-24T04:52:32.219Z,17.61
2022-08-24T04:57:54.885Z,17.61
2022-08-24T05:03:17.939Z,17.69
2022-08-24T05:08:44.443Z,17.72
2022-08-24T05:14:07.920Z,17.79
2022-08-24T05:19:32.833Z,17.96
2022-08-24T05:24:56.989Z,18.07
2022-08-24T05:30:20.531Z,18.23
2022-08-24T05:35:45.833Z,18.36
2022-08-24T05:41:11.799Z,18.60
2022-08-24T05:46:37.191Z,18.65
2022-08-24T05:52:00.414Z,18.65
2022-08-24T05:57:24.306Z,18.56
2022-08-24T06:02:46.746Z,18.55
2022-08-24T06:08:09.367Z,18.72
2022-08-24T06:13:31.894Z,18.84
2022-08-24T06:18:55.552Z,18.97
2022-08-24T06:24:19.058Z,19.04
2022-08-24T06:29:41.385Z,19.26
2022-08-24T06:35:04.253Z,19.41
2022-08-24T06:40:27.093Z,19.58
2022-08-24T06:45:50.241Z,19.71
2022-08-24T06:51:21.216Z,19.76
2022-08-24T06:56:46.754Z,19.94
2022-08-24T07:02:11.259Z,19.90
2022-08-24T07:07:33.559Z,19.63
2022-08-24T07:12:56.558Z,19.72
2022-08-24T07:18:20.637Z,19.82
2022-08-24T07:23:45.057Z,19.88
2022-08-24T07:29:45.796Z,19.87
2022-08-24T07:34:39.967Z,20.01
2022-08-24T07:40:02.663Z,20.23
2022-08-24T07:45:27.250Z,20.40
2022-08-24T07:50:49.528Z,20.65
2022-08-24T07:56:13.063Z,20.93
2022-08-24T08:01:35.888Z,20.98
2022-08-24T08:07:02.164Z,21.09
2022-08-24T08:12:27.794Z,21.25
2022-08-24T08:17:56.095Z,21.50
2022-08-24T08:23:32.289Z,21.77
2022-08-24T08:28:54.822Z,21.84
2022-08-24T08:34:18.299Z,21.93
2022-08-24T08:39:41.189Z,22.12
2022-08-24T08:45:20.240Z,22.11
2022-08-24T08:51:06.739Z,22.19
2022-08-24T08:57:04.934Z,21.26
2022-08-24T09:02:45.590Z,21.75
2022-08-24T09:08:40.395Z,22.24
2022-08-24T09:14:56.160Z,23.02
2022-08-24T09:20:42.047Z,23.41
2022-08-24T09:26:27.606Z,23.47
2022-08-24T09:38:08.618Z,22.98
2022-08-24T09:43:41.572Z,23.02
2022-08-24T09:49:14.658Z,23.48
2022-08-24T09:54:57.637Z,24.76
2022-08-24T10:00:31.099Z,25.02
2022-08-24T10:06:22.351Z,24.32
2022-08-24T10:12:11.424Z,25.39
2022-08-24T10:17:51.301Z,26.27
2022-08-24T10:23:50.561Z,26.14
2022-08-24T10:29:51.695Z,25.88
2022-08-24T10:35:46.794Z,25.18
2022-08-24T10:41:43.177Z,26.74
2022-08-24T10:47:19.537Z,27.91
2022-08-24T10:52:52.706Z,28.35
2022-08-24T10:58:49.877Z,28.11
2022-08-24T11:04:19.501Z,28.13
2022-08-24T11:09:57.982Z,29.56
2022-08-24T11:15:33.090Z,29.80
2022-08-24T11:21:03.023Z,29.49
2022-08-24T11:26:34.603Z,27.89
2022-08-24T11:32:03.155Z,28.30
2022-08-24T11:37:31.399Z,29.43
2022-08-24T11:43:15.563Z,27.45
2022-08-24T11:48:57.750Z,27.60
2022-08-24T11:54:51.353Z,29.08
2022-08-24T12:00:34.787Z,29.89
2022-08-24T12:06:35.268Z,30.65
2022-08-24T12:12:14.442Z,29.52
2022-08-24T12:18:03.566Z,28.21
2022-08-24T12:23:39.614Z,27.84
2022-08-24T12:29:27.184Z,29.75
2022-08-24T12:35:10.471Z,30.77
2022-08-24T12:40:53.612Z,30.34
2022-08-24T12:46:19.327Z,28.77
2022-08-24T12:51:59.156Z,28.07
2022-08-24T12:58:30.997Z,29.51
2022-08-24T13:03:46.883Z,30.29
2022-08-24T13:09:14.674Z,30.81
2022-08-24T13:14:40.020Z,31.37
2022-08-24T13:26:01.729Z,32.34
2022-08-24T13:31:44.584Z,31.43
2022-08-24T13:37:34.603Z,32.29
2022-08-24T13:43:16.328Z,32.89
2022-08-24T13:48:53.224Z,31.34
2022-08-24T14:01:04.232Z,28.64
2022-08-24T14:06:34.241Z,27.89
2022-08-24T14:12:06.582Z,27.84
2022-08-24T14:18:12.660Z,27.50
2022-08-24T14:23:56.617Z,27.29
2022-08-24T14:29:41.496Z,27.85
2022-08-24T14:35:11.575Z,28.84
2022-08-24T14:41:03.636Z,30.62
2022-08-24T14:46:40.434Z,29.93
2022-08-24T14:52:26.177Z,29.66
2022-08-24T14:58:25.482Z,29.88
2022-08-24T15:04:00.435Z,29.71
2022-08-24T15:09:39.070Z,29.08
2022-08-24T15:15:16.249Z,28.42
2022-08-24T15:21:03.973Z,28.03
2022-08-24T15:26:37.015Z,27.74
2022-08-24T15:32:11.964Z,28.85
2022-08-24T15:37:47.862Z,28.87
2022-08-24T15:43:12.826Z,27.98
2022-08-24T15:48:38.136Z,28.32
2022-08-24T15:54:01.066Z,28.60
2022-08-24T15:59:42.448Z,29.06
2022-08-24T16:05:27.939Z,28.74
2022-08-24T16:11:05.863Z,29.41
2022-08-24T16:16:41.381Z,29.73
2022-08-24T16:22:16.353Z,29.70
2022-08-24T16:27:58.766Z,28.77
2022-08-24T16:33:44.279Z,28.16
2022-08-24T16:39:06.442Z,27.79
2022-08-24T16:44:29.442Z,27.26
2022-08-24T16:49:51.893Z,27.10
2022-08-24T16:55:15.216Z,26.84
2022-08-24T17:00:38.374Z,26.39
2022-08-24T17:06:02.798Z,26.07
2022-08-24T17:11:28.123Z,25.83
2022-08-24T17:16:53.326Z,25.59
2022-08-24T17:22:17.890Z,25.34
2022-08-24T17:27:44.651Z,25.17
2022-08-24T17:33:07.056Z,25.00
2022-08-24T17:38:29.443Z,24.79
2022-08-24T17:43:52.308Z,24.50
2022-08-24T17:49:16.918Z,24.20
2022-08-24T17:54:40.426Z,24.07
2022-08-24T18:00:02.845Z,23.81
2022-08-24T18:05:26.249Z,23.60
2022-08-24T18:10:50.108Z,23.60
2022-08-24T18:16:13.083Z,23.52
2022-08-24T18:21:35.983Z,23.46
2022-08-24T18:26:59.748Z,23.45
2022-08-24T18:32:22.192Z,23.39
2022-08-24T18:37:44.404Z,23.32
2022-08-24T18:43:08.871Z,23.20
2022-08-24T18:48:31.478Z,23.06
2022-08-24T18:53:53.961Z,23.01
2022-08-24T18:59:20.706Z,22.94
2022-08-24T19:04:47.438Z,22.82
2022-08-24T19:10:12.129Z,22.69
2022-08-24T19:15:39.890Z,22.62
2022-08-24T19:21:03.926Z,22.62
2022-08-24T19:26:26.862Z,22.48
2022-08-24T19:31:50.949Z,22.37
2022-08-24T19:37:13.464Z,22.27
2022-08-24T19:42:36.609Z,22.16
2022-08-24T19:47:59.896Z,22.02
2022-08-24T19:53:26.940Z,21.89
2022-08-24T19:59:08.574Z,21.81
2022-08-24T20:04:31.403Z,21.80
2022-08-24T20:09:55.001Z,21.66
2022-08-24T20:15:18.517Z,21.51
2022-08-24T20:20:43.429Z,21.33
2022-08-24T20:26:06.260Z,21.22
2022-08-24T20:31:29.884Z,21.09
2022-08-24T20:37:00.495Z,21.01
2022-08-24T20:42:24.289Z,20.91
2022-08-24T20:47:48.441Z,20.80
2022-08-24T20:53:12.375Z,20.73
2022-08-24T20:58:36.491Z,20.66
2022-08-24T21:04:04.296Z,20.53
2022-08-24T21:09:24.947Z,20.50
2022-08-24T21:14:47.916Z,20.39
2022-08-24T21:20:12.855Z,20.32
2022-08-24T21:25:35.549Z,20.29
2022-08-24T21:31:00.483Z,20.26
2022-08-24T21:36:23.855Z,20.22
2022-08-24T21:41:47.180Z,20.13
2022-08-24T21:47:09.554Z,20.06
2022-08-24T21:52:31.997Z,20.07
2022-08-24T21:57:54.914Z,19.99
2022-08-24T22:03:19.195Z,20.01
2022-08-24T22:08:43.014Z,20.04
2022-08-24T22:14:08.126Z,20.09
2022-08-24T22:19:32.086Z,20.12
2022-08-24T22:24:55.328Z,20.12
2022-08-24T22:30:19.273Z,20.09
2022-08-24T22:35:45.243Z,20.07
2022-08-24T22:41:14.624Z,20.08
2022-08-24T22:46:38.281Z,20.15
2022-08-24T22:52:00.926Z,20.18
2022-08-24T22:57:23.163Z,20.22
2022-08-24T23:02:45.449Z,20.21
2022-08-24T23:08:07.912Z,20.27
2022-08-24T23:13:30.160Z,20.15
2022-08-24T23:19:10.483Z,20.07
2022-08-24T23:24:34.492Z,19.99
2022-08-24T23:29:57.838Z,19.92
2022-08-24T23:35:21.613Z,19.88
2022-08-24T23:40:45.539Z,19.87
2022-08-24T23:46:08.339Z,19.82
2022-08-24T23:51:34.339Z,19.79
2022-08-24T23:57:00.876Z,19.76
